sensor_id;sensor_type;location;lat;lon;timestamp;temperature;humidity
56512;DHT22;42408;53.238;5.686;2022-07-23T00:00:33;14.60;99.90
56512;DHT22;42408;53.238;5.686;2022-07-23T00:02:59;14.60;99.90
56512;DHT22;42408;53.238;5.686;2022-07-23T00:05:25;14.50;99.90
56512;DHT22;42408;53.238;5.686;2022-07-23T00:07:50;14.50;99.90
56512;DHT22;42408;53.238;5.686;2022-07-23T00:10:16;14.50;99.90
56512;DHT22;42408;53.238;5.686;2022-07-23T00:12:42;14.40;99.90
56512;DHT22;42408;53.238;5.686;2022-07-23T00:15:09;14.40;99.90
56512;DHT22;42408;53.238;5.686;2022-07-23T00:17:34;14.40;99.90
56512;DHT22;42408;53.238;5.686;2022-07-23T00:20:00;14.30;99.90
56512;DHT22;42408;53.238;5.686;2022-07-23T00:22:26;14.30;99.90
56512;DHT22;42408;53.238;5.686;2022-07-23T00:24:53;14.20;99.90
56512;DHT22;42408;53.238;5.686;2022-07-23T00:27:18;14.10;99.90
56512;DHT22;42408;53.238;5.686;2022-07-23T00:29:44;14.20;99.90
56512;DHT22;42408;53.238;5.686;2022-07-23T00:32:10;14.10;99.90
56512;DHT22;42408;53.238;5.686;2022-07-23T00:34:35;14.10;99.90
56512;DHT22;42408;53.238;5.686;2022-07-23T00:37:01;14.00;99.90
56512;DHT22;42408;53.238;5.686;2022-07-23T00:39:26;14.00;99.90
56512;DHT22;42408;53.238;5.686;2022-07-23T00:41:52;14.00;99.90
56512;DHT22;42408;53.238;5.686;2022-07-23T00:44:23;13.90;99.90
56512;DHT22;42408;53.238;5.686;2022-07-23T00:46:55;13.90;99.90
56512;DHT22;42408;53.238;5.686;2022-07-23T00:49:22;14.10;99.90
56512;DHT22;42408;53.238;5.686;2022-07-23T00:51:48;13.80;99.90
56512;DHT22;42408;53.238;5.686;2022-07-23T00:54:15;13.80;99.90
56512;DHT22;42408;53.238;5.686;2022-07-23T00:56:42;13.70;99.90
56512;DHT22;42408;53.238;5.686;2022-07-23T00:59:08;13.70;99.90
56512;DHT22;42408;53.238;5.686;2022-07-23T01:01:34;13.60;99.90
56512;DHT22;42408;53.238;5.686;2022-07-23T01:04:01;13.60;99.90
56512;DHT22;42408;53.238;5.686;2022-07-23T01:06:26;13.60;99.90
56512;DHT22;42408;53.238;5.686;2022-07-23T01:08:53;13.60;99.90
56512;DHT22;42408;53.238;5.686;2022-07-23T01:11:20;13.70;99.90
56512;DHT22;42408;53.238;5.686;2022-07-23T01:13:45;13.60;99.90
56512;DHT22;42408;53.238;5.686;2022-07-23T01:16:11;13.70;99.90
56512;DHT22;42408;53.238;5.686;2022-07-23T01:18:37;13.70;99.90
56512;DHT22;42408;53.238;5.686;2022-07-23T01:21:02;13.70;99.90
56512;DHT22;42408;53.238;5.686;2022-07-23T01:23:28;13.70;99.90
56512;DHT22;42408;53.238;5.686;2022-07-23T01:25:54;13.70;99.90
56512;DHT22;42408;53.238;5.686;2022-07-23T01:28:20;13.70;99.90
56512;DHT22;42408;53.238;5.686;2022-07-23T01:30:47;13.70;99.90
56512;DHT22;42408;53.238;5.686;2022-07-23T01:33:13;13.70;99.90
56512;DHT22;42408;53.238;5.686;2022-07-23T01:35:38;13.80;99.90
56512;DHT22;42408;53.238;5.686;2022-07-23T01:38:04;13.80;99.90
56512;DHT22;42408;53.238;5.686;2022-07-23T01:40:29;13.90;99.90
56512;DHT22;42408;53.238;5.686;2022-07-23T01:42:55;13.90;99.90
56512;DHT22;42408;53.238;5.686;2022-07-23T01:45:21;13.80;99.90
56512;DHT22;42408;53.238;5.686;2022-07-23T01:47:47;13.80;99.90
56512;DHT22;42408;53.238;5.686;2022-07-23T01:50:12;13.90;99.90
56512;DHT22;42408;53.238;5.686;2022-07-23T01:52:38;13.80;99.90
56512;DHT22;42408;53.238;5.686;2022-07-23T01:55:04;13.80;99.90
56512;DHT22;42408;53.238;5.686;2022-07-23T01:57:31;13.80;99.90
56512;DHT22;42408;53.238;5.686;2022-07-23T01:59:57;13.80;99.90
56512;DHT22;42408;53.238;5.686;2022-07-23T02:02:22;13.80;99.90
56512;DHT22;42408;53.238;5.686;2022-07-23T02:04:48;13.80;99.90
56512;DHT22;42408;53.238;5.686;2022-07-23T02:07:13;13.70;99.90
56512;DHT22;42408;53.238;5.686;2022-07-23T02:09:39;13.70;99.90
56512;DHT22;42408;53.238;5.686;2022-07-23T02:12:05;13.70;99.90
56512;DHT22;42408;53.238;5.686;2022-07-23T02:14:30;13.60;99.90
56512;DHT22;42408;53.238;5.686;2022-07-23T02:16:56;13.60;99.90
56512;DHT22;42408;53.238;5.686;2022-07-23T02:19:22;13.60;99.90
56512;DHT22;42408;53.238;5.686;2022-07-23T02:21:47;13.60;99.90
56512;DHT22;42408;53.238;5.686;2022-07-23T02:24:14;13.60;99.90
56512;DHT22;42408;53.238;5.686;2022-07-23T02:26:40;13.50;99.90
56512;DHT22;42408;53.238;5.686;2022-07-23T02:29:06;13.50;99.90
56512;DHT22;42408;53.238;5.686;2022-07-23T02:31:32;13.50;99.90
56512;DHT22;42408;53.238;5.686;2022-07-23T02:33:58;13.50;99.90
56512;DHT22;42408;53.238;5.686;2022-07-23T02:36:24;13.40;99.90
56512;DHT22;42408;53.238;5.686;2022-07-23T02:38:50;13.40;99.90
56512;DHT22;42408;53.238;5.686;2022-07-23T02:41:16;13.40;99.90
56512;DHT22;42408;53.238;5.686;2022-07-23T02:43:41;13.40;99.90
56512;DHT22;42408;53.238;5.686;2022-07-23T02:46:07;13.30;99.90
56512;DHT22;42408;53.238;5.686;2022-07-23T02:48:33;13.30;99.90
56512;DHT22;42408;53.238;5.686;2022-07-23T02:50:58;13.30;99.90
56512;DHT22;42408;53.238;5.686;2022-07-23T02:53:24;13.30;99.90
56512;DHT22;42408;53.238;5.686;2022-07-23T02:55:50;13.30;99.90
56512;DHT22;42408;53.238;5.686;2022-07-23T02:58:15;13.30;99.90
56512;DHT22;42408;53.238;5.686;2022-07-23T03:00:41;13.30;99.90
56512;DHT22;42408;53.238;5.686;2022-07-23T03:03:07;13.30;99.90
56512;DHT22;42408;53.238;5.686;2022-07-23T03:05:33;13.30;99.90
56512;DHT22;42408;53.238;5.686;2022-07-23T03:07:59;13.20;99.90
56512;DHT22;42408;53.238;5.686;2022-07-23T03:10:24;13.30;99.90
56512;DHT22;42408;53.238;5.686;2022-07-23T03:12:50;13.20;99.90
56512;DHT22;42408;53.238;5.686;2022-07-23T03:15:16;13.30;99.90
56512;DHT22;42408;53.238;5.686;2022-07-23T03:17:41;13.20;99.90
56512;DHT22;42408;53.238;5.686;2022-07-23T03:20:08;13.20;99.90
56512;DHT22;42408;53.238;5.686;2022-07-23T03:22:33;13.20;99.90
56512;DHT22;42408;53.238;5.686;2022-07-23T03:24:59;13.20;99.90
56512;DHT22;42408;53.238;5.686;2022-07-23T03:27:27;13.10;99.90
56512;DHT22;42408;53.238;5.686;2022-07-23T03:29:55;13.20;99.90
56512;DHT22;42408;53.238;5.686;2022-07-23T03:32:21;13.10;99.90
56512;DHT22;42408;53.238;5.686;2022-07-23T03:34:47;13.10;99.90
56512;DHT22;42408;53.238;5.686;2022-07-23T03:37:13;13.20;99.90
56512;DHT22;42408;53.238;5.686;2022-07-23T03:39:39;13.10;99.90
56512;DHT22;42408;53.238;5.686;2022-07-23T03:42:05;13.10;99.90
56512;DHT22;42408;53.238;5.686;2022-07-23T03:44:31;13.00;99.90
56512;DHT22;42408;53.238;5.686;2022-07-23T03:46:57;13.00;99.90
56512;DHT22;42408;53.238;5.686;2022-07-23T03:49:22;13.00;99.90
56512;DHT22;42408;53.238;5.686;2022-07-23T03:51:48;13.00;99.90
56512;DHT22;42408;53.238;5.686;2022-07-23T03:54:13;13.00;99.90
56512;DHT22;42408;53.238;5.686;2022-07-23T03:56:39;13.00;99.90
56512;DHT22;42408;53.238;5.686;2022-07-23T03:59:05;13.00;99.90
56512;DHT22;42408;53.238;5.686;2022-07-23T04:01:31;13.00;99.90
56512;DHT22;42408;53.238;5.686;2022-07-23T04:03:56;13.00;99.90
56512;DHT22;42408;53.238;5.686;2022-07-23T04:06:22;13.00;99.90
56512;DHT22;42408;53.238;5.686;2022-07-23T04:08:47;13.00;99.90
56512;DHT22;42408;53.238;5.686;2022-07-23T04:11:13;13.00;99.90
56512;DHT22;42408;53.238;5.686;2022-07-23T04:13:39;13.00;99.90
56512;DHT22;42408;53.238;5.686;2022-07-23T04:16:05;13.00;99.90
56512;DHT22;42408;53.238;5.686;2022-07-23T04:18:31;13.00;99.90
56512;DHT22;42408;53.238;5.686;2022-07-23T04:20:57;13.00;99.90
56512;DHT22;42408;53.238;5.686;2022-07-23T04:23:22;13.00;99.90
56512;DHT22;42408;53.238;5.686;2022-07-23T04:25:48;13.00;99.90
56512;DHT22;42408;53.238;5.686;2022-07-23T04:28:14;13.10;99.90
56512;DHT22;42408;53.238;5.686;2022-07-23T04:30:40;13.00;99.90
56512;DHT22;42408;53.238;5.686;2022-07-23T04:33:06;13.00;99.90
56512;DHT22;42408;53.238;5.686;2022-07-23T04:35:35;13.00;99.90
56512;DHT22;42408;53.238;5.686;2022-07-23T04:38:02;13.10;99.90
56512;DHT22;42408;53.238;5.686;2022-07-23T04:40:28;13.10;99.90
56512;DHT22;42408;53.238;5.686;2022-07-23T04:42:53;13.10;99.90
56512;DHT22;42408;53.238;5.686;2022-07-23T04:45:19;13.10;99.90
56512;DHT22;42408;53.238;5.686;2022-07-23T04:47:45;13.10;99.90
56512;DHT22;42408;53.238;5.686;2022-07-23T04:50:10;13.10;99.90
56512;DHT22;42408;53.238;5.686;2022-07-23T04:52:36;13.10;99.90
56512;DHT22;42408;53.238;5.686;2022-07-23T04:55:02;13.10;99.90
56512;DHT22;42408;53.238;5.686;2022-07-23T04:57:28;13.10;99.90
56512;DHT22;42408;53.238;5.686;2022-07-23T04:59:53;13.10;99.90
56512;DHT22;42408;53.238;5.686;2022-07-23T05:02:19;13.10;99.90
56512;DHT22;42408;53.238;5.686;2022-07-23T05:04:44;13.20;99.90
56512;DHT22;42408;53.238;5.686;2022-07-23T05:07:10;13.20;99.90
56512;DHT22;42408;53.238;5.686;2022-07-23T05:09:35;13.20;99.90
56512;DHT22;42408;53.238;5.686;2022-07-23T05:12:01;13.30;99.90
56512;DHT22;42408;53.238;5.686;2022-07-23T05:14:27;13.30;99.90
56512;DHT22;42408;53.238;5.686;2022-07-23T05:16:53;13.30;99.90
56512;DHT22;42408;53.238;5.686;2022-07-23T05:19:20;13.30;99.90
56512;DHT22;42408;53.238;5.686;2022-07-23T05:21:45;13.40;99.90
56512;DHT22;42408;53.238;5.686;2022-07-23T05:24:11;13.50;99.90
56512;DHT22;42408;53.238;5.686;2022-07-23T05:26:37;13.50;99.90
56512;DHT22;42408;53.238;5.686;2022-07-23T05:29:02;13.50;99.90
56512;DHT22;42408;53.238;5.686;2022-07-23T05:31:28;13.60;99.90
56512;DHT22;42408;53.238;5.686;2022-07-23T05:33:53;13.60;99.90
56512;DHT22;42408;53.238;5.686;2022-07-23T05:36:19;13.70;99.90
56512;DHT22;42408;53.238;5.686;2022-07-23T05:38:45;13.80;99.90
56512;DHT22;42408;53.238;5.686;2022-07-23T05:41:11;13.80;99.90
56512;DHT22;42408;53.238;5.686;2022-07-23T05:43:36;13.90;99.90
56512;DHT22;42408;53.238;5.686;2022-07-23T05:46:02;13.90;99.90
56512;DHT22;42408;53.238;5.686;2022-07-23T05:48:27;14.00;99.90
56512;DHT22;42408;53.238;5.686;2022-07-23T05:50:53;14.00;99.90
56512;DHT22;42408;53.238;5.686;2022-07-23T05:53:19;14.10;99.90
56512;DHT22;42408;53.238;5.686;2022-07-23T05:55:44;14.20;99.90
56512;DHT22;42408;53.238;5.686;2022-07-23T05:58:10;14.20;99.90
56512;DHT22;42408;53.238;5.686;2022-07-23T06:00:36;14.30;99.90
56512;DHT22;42408;53.238;5.686;2022-07-23T06:03:01;14.30;99.90
56512;DHT22;42408;53.238;5.686;2022-07-23T06:05:27;14.40;99.90
56512;DHT22;42408;53.238;5.686;2022-07-23T06:07:52;14.40;99.90
56512;DHT22;42408;53.238;5.686;2022-07-23T06:10:19;14.50;99.90
56512;DHT22;42408;53.238;5.686;2022-07-23T06:12:45;14.70;99.90
56512;DHT22;42408;53.238;5.686;2022-07-23T06:15:10;14.70;99.90
56512;DHT22;42408;53.238;5.686;2022-07-23T06:17:37;14.80;99.90
56512;DHT22;42408;53.238;5.686;2022-07-23T06:20:06;14.80;99.90
56512;DHT22;42408;53.238;5.686;2022-07-23T06:22:31;15.00;99.90
56512;DHT22;42408;53.238;5.686;2022-07-23T06:24:57;15.00;99.90
56512;DHT22;42408;53.238;5.686;2022-07-23T06:27:23;15.20;99.90
56512;DHT22;42408;53.238;5.686;2022-07-23T06:29:48;15.40;99.90
56512;DHT22;42408;53.238;5.686;2022-07-23T06:32:14;15.50;99.90
56512;DHT22;42408;53.238;5.686;2022-07-23T06:34:39;15.70;99.90
56512;DHT22;42408;53.238;5.686;2022-07-23T06:37:05;15.90;99.90
56512;DHT22;42408;53.238;5.686;2022-07-23T06:39:31;16.20;99.90
56512;DHT22;42408;53.238;5.686;2022-07-23T06:41:56;16.60;99.90
56512;DHT22;42408;53.238;5.686;2022-07-23T06:44:22;17.00;99.90
56512;DHT22;42408;53.238;5.686;2022-07-23T06:46:48;17.60;99.90
56512;DHT22;42408;53.238;5.686;2022-07-23T06:49:13;18.30;99.90
56512;DHT22;42408;53.238;5.686;2022-07-23T06:51:39;18.60;99.90
56512;DHT22;42408;53.238;5.686;2022-07-23T06:54:05;18.80;99.90
56512;DHT22;42408;53.238;5.686;2022-07-23T06:56:30;18.80;99.90
56512;DHT22;42408;53.238;5.686;2022-07-23T06:58:56;18.70;99.90
56512;DHT22;42408;53.238;5.686;2022-07-23T07:01:21;18.70;99.90
56512;DHT22;42408;53.238;5.686;2022-07-23T07:03:47;18.60;99.90
56512;DHT22;42408;53.238;5.686;2022-07-23T07:06:13;18.50;99.90
56512;DHT22;42408;53.238;5.686;2022-07-23T07:08:40;18.40;99.90
56512;DHT22;42408;53.238;5.686;2022-07-23T07:11:05;18.40;99.90
56512;DHT22;42408;53.238;5.686;2022-07-23T07:13:31;18.20;99.90
56512;DHT22;42408;53.238;5.686;2022-07-23T07:15:57;18.20;99.90
56512;DHT22;42408;53.238;5.686;2022-07-23T07:18:22;18.00;99.90
56512;DHT22;42408;53.238;5.686;2022-07-23T07:20:48;18.10;99.90
56512;DHT22;42408;53.238;5.686;2022-07-23T07:23:14;18.00;99.90
56512;DHT22;42408;53.238;5.686;2022-07-23T07:25:40;18.00;99.90
56512;DHT22;42408;53.238;5.686;2022-07-23T07:28:05;18.00;99.90
56512;DHT22;42408;53.238;5.686;2022-07-23T07:30:31;18.00;99.90
56512;DHT22;42408;53.238;5.686;2022-07-23T07:32:57;18.00;99.90
56512;DHT22;42408;53.238;5.686;2022-07-23T07:35:22;17.90;99.90
56512;DHT22;42408;53.238;5.686;2022-07-23T07:37:48;17.90;99.90
56512;DHT22;42408;53.238;5.686;2022-07-23T07:40:14;18.10;99.90
56512;DHT22;42408;53.238;5.686;2022-07-23T07:42:46;17.90;99.90
56512;DHT22;42408;53.238;5.686;2022-07-23T07:45:12;17.80;99.90
56512;DHT22;42408;53.238;5.686;2022-07-23T07:47:38;17.90;99.90
56512;DHT22;42408;53.238;5.686;2022-07-23T07:50:04;17.90;99.90
56512;DHT22;42408;53.238;5.686;2022-07-23T07:52:29;17.90;99.90
56512;DHT22;42408;53.238;5.686;2022-07-23T07:54:55;18.00;99.90
56512;DHT22;42408;53.238;5.686;2022-07-23T07:57:21;18.00;99.90
56512;DHT22;42408;53.238;5.686;2022-07-23T07:59:46;17.90;99.90
56512;DHT22;42408;53.238;5.686;2022-07-23T08:02:12;18.00;99.90
56512;DHT22;42408;53.238;5.686;2022-07-23T08:04:37;18.00;99.90
56512;DHT22;42408;53.238;5.686;2022-07-23T08:07:03;17.90;99.90
56512;DHT22;42408;53.238;5.686;2022-07-23T08:09:29;17.90;99.90
56512;DHT22;42408;53.238;5.686;2022-07-23T08:11:54;17.80;99.90
56512;DHT22;42408;53.238;5.686;2022-07-23T08:14:20;17.80;99.90
56512;DHT22;42408;53.238;5.686;2022-07-23T08:16:46;17.80;99.90
56512;DHT22;42408;53.238;5.686;2022-07-23T08:19:11;17.80;99.90
56512;DHT22;42408;53.238;5.686;2022-07-23T08:21:37;17.80;99.90
56512;DHT22;42408;53.238;5.686;2022-07-23T08:24:03;17.70;99.90
56512;DHT22;42408;53.238;5.686;2022-07-23T08:26:28;17.80;99.90
56512;DHT22;42408;53.238;5.686;2022-07-23T08:28:54;17.90;99.90
56512;DHT22;42408;53.238;5.686;2022-07-23T08:31:19;18.00;99.90
56512;DHT22;42408;53.238;5.686;2022-07-23T08:33:45;18.10;99.90
56512;DHT22;42408;53.238;5.686;2022-07-23T08:36:11;18.20;99.90
56512;DHT22;42408;53.238;5.686;2022-07-23T08:38:36;18.30;99.90
56512;DHT22;42408;53.238;5.686;2022-07-23T08:41:02;18.50;99.90
56512;DHT22;42408;53.238;5.686;2022-07-23T08:43:31;18.90;99.90
56512;DHT22;42408;53.238;5.686;2022-07-23T08:45:59;19.50;99.90
56512;DHT22;42408;53.238;5.686;2022-07-23T08:48:29;20.10;99.90
56512;DHT22;42408;53.238;5.686;2022-07-23T08:50:58;20.30;99.90
56512;DHT22;42408;53.238;5.686;2022-07-23T08:53:26;20.30;99.90
56512;DHT22;42408;53.238;5.686;2022-07-23T08:55:53;20.40;99.90
56512;DHT22;42408;53.238;5.686;2022-07-23T08:58:20;20.30;99.90
56512;DHT22;42408;53.238;5.686;2022-07-23T09:00:46;20.20;99.90
56512;DHT22;42408;53.238;5.686;2022-07-23T09:03:21;20.10;99.90
56512;DHT22;42408;53.238;5.686;2022-07-23T09:05:47;20.00;99.90
56512;DHT22;42408;53.238;5.686;2022-07-23T09:08:16;20.00;99.90
56512;DHT22;42408;53.238;5.686;2022-07-23T09:16:09;20.50;99.90
56512;DHT22;42408;53.238;5.686;2022-07-23T09:21:21;20.80;99.90
56512;DHT22;42408;53.238;5.686;2022-07-23T09:23:55;20.80;99.90
56512;DHT22;42408;53.238;5.686;2022-07-23T09:26:30;20.80;99.90
56512;DHT22;42408;53.238;5.686;2022-07-23T09:31:46;20.90;99.90
56512;DHT22;42408;53.238;5.686;2022-07-23T09:36:47;21.30;99.90
56512;DHT22;42408;53.238;5.686;2022-07-23T09:39:14;21.40;99.90
56512;DHT22;42408;53.238;5.686;2022-07-23T09:41:47;21.60;99.90
56512;DHT22;42408;53.238;5.686;2022-07-23T09:44:15;21.90;99.90
56512;DHT22;42408;53.238;5.686;2022-07-23T09:46:46;21.90;99.90
56512;DHT22;42408;53.238;5.686;2022-07-23T09:49:20;22.10;99.90
56512;DHT22;42408;53.238;5.686;2022-07-23T09:51:58;22.20;99.90
56512;DHT22;42408;53.238;5.686;2022-07-23T09:56:51;22.40;99.90
56512;DHT22;42408;53.238;5.686;2022-07-23T09:59:18;22.50;99.90
56512;DHT22;42408;53.238;5.686;2022-07-23T10:01:47;22.60;99.90
56512;DHT22;42408;53.238;5.686;2022-07-23T10:04:14;22.60;99.90
56512;DHT22;42408;53.238;5.686;2022-07-23T10:06:41;22.80;99.90
56512;DHT22;42408;53.238;5.686;2022-07-23T10:09:11;23.10;99.90
56512;DHT22;42408;53.238;5.686;2022-07-23T10:11:37;23.30;99.90
56512;DHT22;42408;53.238;5.686;2022-07-23T10:14:04;23.40;99.90
56512;DHT22;42408;53.238;5.686;2022-07-23T10:16:31;23.60;99.90
56512;DHT22;42408;53.238;5.686;2022-07-23T10:18:57;23.90;99.90
56512;DHT22;42408;53.238;5.686;2022-07-23T10:21:46;23.90;99.90
56512;DHT22;42408;53.238;5.686;2022-07-23T10:24:28;23.70;99.90
56512;DHT22;42408;53.238;5.686;2022-07-23T10:30:06;23.50;99.90
56512;DHT22;42408;53.238;5.686;2022-07-23T10:38:02;23.10;99.90
56512;DHT22;42408;53.238;5.686;2022-07-23T10:40:28;23.20;99.90
56512;DHT22;42408;53.238;5.686;2022-07-23T10:42:58;23.30;99.90
56512;DHT22;42408;53.238;5.686;2022-07-23T10:45:32;23.40;99.90
56512;DHT22;42408;53.238;5.686;2022-07-23T10:48:18;23.60;99.90
56512;DHT22;42408;53.238;5.686;2022-07-23T10:51:11;23.80;99.90
56512;DHT22;42408;53.238;5.686;2022-07-23T10:53:56;23.80;99.90
56512;DHT22;42408;53.238;5.686;2022-07-23T10:57:04;23.90;99.90
56512;DHT22;42408;53.238;5.686;2022-07-23T10:59:30;24.00;99.90
56512;DHT22;42408;53.238;5.686;2022-07-23T11:02:22;23.80;99.90
56512;DHT22;42408;53.238;5.686;2022-07-23T11:04:50;23.90;99.90
56512;DHT22;42408;53.238;5.686;2022-07-23T11:07:16;23.80;99.90
56512;DHT22;42408;53.238;5.686;2022-07-23T11:09:43;23.80;99.90
56512;DHT22;42408;53.238;5.686;2022-07-23T11:15:04;23.70;99.90
56512;DHT22;42408;53.238;5.686;2022-07-23T11:18:17;23.90;99.90
56512;DHT22;42408;53.238;5.686;2022-07-23T11:20:20;24.10;99.90
56512;DHT22;42408;53.238;5.686;2022-07-23T11:22:49;24.20;99.90
56512;DHT22;42408;53.238;5.686;2022-07-23T11:27:48;24.40;99.90
56512;DHT22;42408;53.238;5.686;2022-07-23T11:30:44;24.60;99.90
56512;DHT22;42408;53.238;5.686;2022-07-23T11:35:37;24.80;99.90
56512;DHT22;42408;53.238;5.686;2022-07-23T11:38:08;24.80;99.90
56512;DHT22;42408;53.238;5.686;2022-07-23T11:40:37;24.80;99.90
56512;DHT22;42408;53.238;5.686;2022-07-23T11:43:08;24.70;99.90
56512;DHT22;42408;53.238;5.686;2022-07-23T11:45:38;24.60;99.90
56512;DHT22;42408;53.238;5.686;2022-07-23T11:48:07;24.80;99.90
56512;DHT22;42408;53.238;5.686;2022-07-23T11:50:34;24.90;99.90
56512;DHT22;42408;53.238;5.686;2022-07-23T11:52:59;25.10;99.90
56512;DHT22;42408;53.238;5.686;2022-07-23T11:55:25;25.30;99.90
56512;DHT22;42408;53.238;5.686;2022-07-23T11:57:52;25.50;99.90
56512;DHT22;42408;53.238;5.686;2022-07-23T12:00:20;25.60;99.70
56512;DHT22;42408;53.238;5.686;2022-07-23T12:02:50;25.80;99.00
56512;DHT22;42408;53.238;5.686;2022-07-23T12:05:24;25.90;99.40
56512;DHT22;42408;53.238;5.686;2022-07-23T12:07:52;26.00;97.60
56512;DHT22;42408;53.238;5.686;2022-07-23T12:10:23;26.00;98.40
56512;DHT22;42408;53.238;5.686;2022-07-23T12:12:57;25.80;97.20
56512;DHT22;42408;53.238;5.686;2022-07-23T12:15:31;25.70;97.60
56512;DHT22;42408;53.238;5.686;2022-07-23T12:17:59;25.60;97.60
56512;DHT22;42408;53.238;5.686;2022-07-23T12:20:28;25.50;98.20
56512;DHT22;42408;53.238;5.686;2022-07-23T12:22:59;25.60;98.90
56512;DHT22;42408;53.238;5.686;2022-07-23T12:25:28;25.60;98.90
56512;DHT22;42408;53.238;5.686;2022-07-23T12:28:04;25.60;98.30
56512;DHT22;42408;53.238;5.686;2022-07-23T12:33:03;25.70;97.50
56512;DHT22;42408;53.238;5.686;2022-07-23T12:38:09;25.90;97.80
56512;DHT22;42408;53.238;5.686;2022-07-23T12:43:25;25.70;98.20
56512;DHT22;42408;53.238;5.686;2022-07-23T12:45:53;25.70;98.50
56512;DHT22;42408;53.238;5.686;2022-07-23T12:50:52;25.70;99.30
56512;DHT22;42408;53.238;5.686;2022-07-23T12:53:27;25.70;99.00
56512;DHT22;42408;53.238;5.686;2022-07-23T12:56:02;25.80;99.50
56512;DHT22;42408;53.238;5.686;2022-07-23T12:58:40;25.70;97.30
56512;DHT22;42408;53.238;5.686;2022-07-23T13:01:07;25.70;98.20
56512;DHT22;42408;53.238;5.686;2022-07-23T13:03:36;25.70;98.60
56512;DHT22;42408;53.238;5.686;2022-07-23T13:06:04;25.80;98.60
56512;DHT22;42408;53.238;5.686;2022-07-23T13:08:31;25.70;98.60
56512;DHT22;42408;53.238;5.686;2022-07-23T13:10:57;25.70;97.80
56512;DHT22;42408;53.238;5.686;2022-07-23T13:13:24;25.50;96.80
56512;DHT22;42408;53.238;5.686;2022-07-23T13:15:51;25.40;98.20
56512;DHT22;42408;53.238;5.686;2022-07-23T13:18:17;25.30;97.00
56512;DHT22;42408;53.238;5.686;2022-07-23T13:20:45;25.30;97.70
56512;DHT22;42408;53.238;5.686;2022-07-23T13:23:11;25.40;98.20
56512;DHT22;42408;53.238;5.686;2022-07-23T13:25:37;25.40;98.00
56512;DHT22;42408;53.238;5.686;2022-07-23T13:28:03;25.20;98.00
56512;DHT22;42408;53.238;5.686;2022-07-23T13:30:29;25.20;97.70
56512;DHT22;42408;53.238;5.686;2022-07-23T13:32:54;25.20;97.60
56512;DHT22;42408;53.238;5.686;2022-07-23T13:35:20;25.00;98.00
56512;DHT22;42408;53.238;5.686;2022-07-23T13:37:45;24.80;98.30
56512;DHT22;42408;53.238;5.686;2022-07-23T13:40:11;24.60;97.90
56512;DHT22;42408;53.238;5.686;2022-07-23T13:42:37;24.50;99.00
56512;DHT22;42408;53.238;5.686;2022-07-23T13:45:04;24.40;99.00
56512;DHT22;42408;53.238;5.686;2022-07-23T13:47:30;24.30;98.50
56512;DHT22;42408;53.238;5.686;2022-07-23T13:49:56;24.20;98.50
56512;DHT22;42408;53.238;5.686;2022-07-23T13:52:22;24.10;98.90
56512;DHT22;42408;53.238;5.686;2022-07-23T13:54:47;23.90;99.90
56512;DHT22;42408;53.238;5.686;2022-07-23T13:57:13;23.90;99.90
56512;DHT22;42408;53.238;5.686;2022-07-23T13:59:39;23.80;99.90
56512;DHT22;42408;53.238;5.686;2022-07-23T14:02:05;24.00;99.90
56512;DHT22;42408;53.238;5.686;2022-07-23T14:04:31;24.10;99.90
56512;DHT22;42408;53.238;5.686;2022-07-23T14:06:57;24.30;99.90
56512;DHT22;42408;53.238;5.686;2022-07-23T14:09:24;24.40;99.90
56512;DHT22;42408;53.238;5.686;2022-07-23T14:11:51;24.60;99.90
56512;DHT22;42408;53.238;5.686;2022-07-23T14:14:17;24.60;99.90
56512;DHT22;42408;53.238;5.686;2022-07-23T14:16:43;24.70;99.90
56512;DHT22;42408;53.238;5.686;2022-07-23T14:19:09;24.70;99.90
56512;DHT22;42408;53.238;5.686;2022-07-23T14:21:35;24.80;99.90
56512;DHT22;42408;53.238;5.686;2022-07-23T14:24:00;24.90;99.90
56512;DHT22;42408;53.238;5.686;2022-07-23T14:26:26;24.90;99.90
56512;DHT22;42408;53.238;5.686;2022-07-23T14:28:52;25.00;99.90
56512;DHT22;42408;53.238;5.686;2022-07-23T14:31:18;25.10;99.90
56512;DHT22;42408;53.238;5.686;2022-07-23T14:33:44;25.20;99.90
56512;DHT22;42408;53.238;5.686;2022-07-23T14:36:09;25.10;99.30
56512;DHT22;42408;53.238;5.686;2022-07-23T14:38:35;25.10;99.60
56512;DHT22;42408;53.238;5.686;2022-07-23T14:41:00;25.10;98.80
56512;DHT22;42408;53.238;5.686;2022-07-23T14:43:26;25.10;99.10
56512;DHT22;42408;53.238;5.686;2022-07-23T14:45:52;25.10;98.80
56512;DHT22;42408;53.238;5.686;2022-07-23T14:48:17;25.10;98.70
56512;DHT22;42408;53.238;5.686;2022-07-23T14:50:43;25.20;98.80
56512;DHT22;42408;53.238;5.686;2022-07-23T14:53:08;25.10;99.10
56512;DHT22;42408;53.238;5.686;2022-07-23T14:55:34;25.20;99.60
56512;DHT22;42408;53.238;5.686;2022-07-23T14:58:00;25.10;99.10
56512;DHT22;42408;53.238;5.686;2022-07-23T15:00:26;25.20;98.00
56512;DHT22;42408;53.238;5.686;2022-07-23T15:02:52;25.20;97.70
56512;DHT22;42408;53.238;5.686;2022-07-23T15:05:18;25.20;97.60
56512;DHT22;42408;53.238;5.686;2022-07-23T15:07:44;25.20;98.40
56512;DHT22;42408;53.238;5.686;2022-07-23T15:10:10;25.10;98.60
56512;DHT22;42408;53.238;5.686;2022-07-23T15:12:36;25.10;98.50
56512;DHT22;42408;53.238;5.686;2022-07-23T15:15:01;25.10;98.80
56512;DHT22;42408;53.238;5.686;2022-07-23T15:17:27;25.10;98.40
56512;DHT22;42408;53.238;5.686;2022-07-23T15:19:53;25.10;98.60
56512;DHT22;42408;53.238;5.686;2022-07-23T15:22:18;25.00;98.10
56512;DHT22;42408;53.238;5.686;2022-07-23T15:24:44;25.00;98.20
56512;DHT22;42408;53.238;5.686;2022-07-23T15:27:09;25.00;98.70
56512;DHT22;42408;53.238;5.686;2022-07-23T15:29:35;24.90;98.20
56512;DHT22;42408;53.238;5.686;2022-07-23T15:32:01;25.00;98.60
56512;DHT22;42408;53.238;5.686;2022-07-23T15:34:27;24.90;99.40
56512;DHT22;42408;53.238;5.686;2022-07-23T15:36:53;24.90;99.00
56512;DHT22;42408;53.238;5.686;2022-07-23T15:39:19;25.00;98.60
56512;DHT22;42408;53.238;5.686;2022-07-23T15:41:44;25.00;98.50
56512;DHT22;42408;53.238;5.686;2022-07-23T15:44:10;24.90;98.00
56512;DHT22;42408;53.238;5.686;2022-07-23T15:46:36;24.90;97.20
56512;DHT22;42408;53.238;5.686;2022-07-23T15:49:01;24.80;98.00
56512;DHT22;42408;53.238;5.686;2022-07-23T15:51:27;24.70;98.20
56512;DHT22;42408;53.238;5.686;2022-07-23T15:53:54;24.70;98.20
56512;DHT22;42408;53.238;5.686;2022-07-23T15:56:20;24.60;98.50
56512;DHT22;42408;53.238;5.686;2022-07-23T15:58:45;24.60;96.80
56512;DHT22;42408;53.238;5.686;2022-07-23T16:01:11;24.70;95.70
56512;DHT22;42408;53.238;5.686;2022-07-23T16:03:37;24.60;96.20
56512;DHT22;42408;53.238;5.686;2022-07-23T16:06:05;24.70;95.80
56512;DHT22;42408;53.238;5.686;2022-07-23T16:08:31;24.70;94.90
56512;DHT22;42408;53.238;5.686;2022-07-23T16:10:57;24.70;94.80